createdAt,value
2016-10-12T00:00:07.450Z,1004.33
2016-10-12T00:00:29.165Z,1004.30
2016-10-12T00:00:50.881Z,1004.32
2016-10-12T00:01:12.594Z,1004.36
2016-10-12T00:01:34.307Z,1004.28
2016-10-12T00:01:56.020Z,1004.40
2016-10-12T00:02:17.730Z,1004.47
2016-10-12T00:02:39.464Z,1004.51
2016-10-12T00:03:01.169Z,1004.47
2016-10-12T00:03:22.878Z,1004.36
2016-10-12T00:03:44.594Z,1004.44
2016-10-12T00:04:06.316Z,1004.42
2016-10-12T00:04:28.034Z,1004.35
2016-10-12T00:04:49.745Z,1004.38
2016-10-12T00:05:11.463Z,1004.31
2016-10-12T00:05:33.175Z,1004.35
2016-10-12T00:05:54.892Z,1004.36
2016-10-12T00:06:16.602Z,1004.44
2016-10-12T00:06:38.319Z,1004.47
2016-10-12T00:07:00.041Z,1004.38
2016-10-12T00:07:21.757Z,1004.42
2016-10-12T00:07:43.484Z,1004.40
2016-10-12T00:08:05.199Z,1004.39
2016-10-12T00:08:26.923Z,1004.44
2016-10-12T00:08:48.638Z,1004.41
2016-10-12T00:09:10.351Z,1004.38
2016-10-12T00:09:32.079Z,1004.41
2016-10-12T00:09:53.794Z,1004.37
2016-10-12T00:10:15.505Z,1004.36
2016-10-12T00:10:37.216Z,1004.42
2016-10-12T00:10:58.927Z,1004.40
2016-10-12T00:11:20.647Z,1004.41
2016-10-12T00:11:42.361Z,1004.50
2016-10-12T00:12:04.067Z,1004.51
2016-10-12T00:12:25.785Z,1004.48
2016-10-12T00:12:47.494Z,1004.46
2016-10-12T00:13:09.212Z,1004.41
2016-10-12T00:13:30.936Z,1004.42
2016-10-12T00:13:52.666Z,1004.38
2016-10-12T00:14:16.986Z,1004.47
2016-10-12T00:14:38.703Z,1004.37
2016-10-12T00:15:00.416Z,1004.40
2016-10-12T00:15:22.135Z,1004.41
2016-10-12T00:15:43.852Z,1004.47
2016-10-12T00:16:05.561Z,1004.47
2016-10-12T00:16:27.283Z,1004.55
2016-10-12T00:16:49.000Z,1004.47
2016-10-12T00:17:10.715Z,1004.45
2016-10-12T00:17:32.431Z,1004.58
2016-10-12T00:17:54.149Z,1004.49
2016-10-12T00:18:15.872Z,1004.43
2016-10-12T00:18:37.661Z,1004.50
2016-10-12T00:18:59.392Z,1004.41
2016-10-12T00:19:21.106Z,1004.53
2016-10-12T00:19:42.815Z,1004.49
2016-10-12T00:20:04.547Z,1004.34
2016-10-12T00:20:26.250Z,1004.52
2016-10-12T00:20:47.974Z,1004.47
2016-10-12T00:21:09.696Z,1004.41
2016-10-12T00:21:31.411Z,1004.42
2016-10-12T00:21:53.137Z,1004.38
2016-10-12T00:22:14.854Z,1004.50
2016-10-12T00:22:36.570Z,1004.44
2016-10-12T00:22:58.289Z,1004.41
2016-10-12T00:23:19.998Z,1004.42
2016-10-12T00:23:41.717Z,1004.43
2016-10-12T00:24:03.428Z,1004.49
2016-10-12T00:24:25.146Z,1004.52
2016-10-12T00:24:46.862Z,1004.45
2016-10-12T00:25:08.578Z,1004.45
2016-10-12T00:25:30.288Z,1004.44
2016-10-12T00:25:52.009Z,1004.44
2016-10-12T00:26:13.727Z,1004.46
2016-10-12T00:26:44.800Z,1004.41
2016-10-12T00:27:06.523Z,1004.45
2016-10-12T00:27:28.244Z,1004.55
2016-10-12T00:27:49.962Z,1004.47
2016-10-12T00:28:11.679Z,1004.48
2016-10-12T00:28:59.879Z,1004.47
2016-10-12T00:29:21.597Z,1004.49
2016-10-12T00:29:43.316Z,1004.53
2016-10-12T00:30:05.031Z,1004.49
2016-10-12T00:30:26.756Z,1004.50
2016-10-12T00:30:48.484Z,1004.49
2016-10-12T00:31:10.191Z,1004.53
2016-10-12T00:31:31.921Z,1004.43
2016-10-12T00:31:53.637Z,1004.43
2016-10-12T00:32:15.347Z,1004.51
2016-10-12T00:32:37.061Z,1004.49
2016-10-12T00:32:58.774Z,1004.49
2016-10-12T00:33:20.491Z,1004.48
2016-10-12T00:33:42.201Z,1004.40
2016-10-12T00:34:03.911Z,1004.46
2016-10-12T00:34:25.619Z,1004.48
2016-10-12T00:34:47.331Z,1004.57
2016-10-12T00:35:09.044Z,1004.54
2016-10-12T00:35:30.758Z,1004.48
2016-10-12T00:35:52.477Z,1004.49
2016-10-12T00:36:14.190Z,1004.52
2016-10-12T00:36:35.903Z,1004.46
2016-10-12T00:36:57.611Z,1004.45
2016-10-12T00:37:19.321Z,1004.47
2016-10-12T00:37:41.035Z,1004.42
2016-10-12T00:38:02.752Z,1004.42
2016-10-12T00:38:24.484Z,1004.46
2016-10-12T00:38:46.204Z,1004.52
2016-10-12T00:39:07.917Z,1004.57
2016-10-12T00:39:29.625Z,1004.48
2016-10-12T00:39:51.347Z,1004.45
2016-10-12T00:40:13.057Z,1004.43
2016-10-12T00:40:34.766Z,1004.44
2016-10-12T00:40:56.480Z,1004.37
2016-10-12T00:41:18.195Z,1004.35
2016-10-12T00:41:39.906Z,1004.42
2016-10-12T00:42:06.397Z,1004.41
2016-10-12T00:42:28.128Z,1004.42
2016-10-12T00:42:49.834Z,1004.48
2016-10-12T00:43:11.544Z,1004.42
2016-10-12T00:43:33.256Z,1004.40
2016-10-12T00:43:54.977Z,1004.39
2016-10-12T00:44:16.694Z,1004.47
2016-10-12T00:44:38.404Z,1004.45
2016-10-12T00:45:00.118Z,1004.40
2016-10-12T00:45:21.835Z,1004.42
2016-10-12T00:46:37.441Z,1004.45
2016-10-12T00:46:59.156Z,1004.47
2016-10-12T00:47:20.874Z,1004.41
2016-10-12T00:47:42.589Z,1004.46
2016-10-12T00:48:04.312Z,1004.48
2016-10-12T00:48:26.034Z,1004.46
2016-10-12T00:48:47.753Z,1004.42
2016-10-12T00:49:09.483Z,1004.44
2016-10-12T00:49:31.203Z,1004.43
2016-10-12T00:49:52.927Z,1004.35
2016-10-12T00:50:14.644Z,1004.37
2016-10-12T00:50:36.355Z,1004.43
2016-10-12T00:50:58.066Z,1004.42
2016-10-12T00:51:19.786Z,1004.40
2016-10-12T00:51:46.270Z,1004.45
2016-10-12T00:52:07.996Z,1004.51
2016-10-12T00:52:29.708Z,1004.44
2016-10-12T00:52:51.420Z,1004.39
2016-10-12T00:53:13.136Z,1004.33
2016-10-12T00:53:34.843Z,1004.36
2016-10-12T00:53:56.558Z,1004.38
2016-10-12T00:54:18.276Z,1004.41
2016-10-12T00:54:39.996Z,1004.38
2016-10-12T00:55:01.709Z,1004.37
2016-10-12T00:55:23.422Z,1004.51
2016-10-12T00:56:16.198Z,1004.42
2016-10-12T00:56:37.918Z,1004.41
2016-10-12T00:56:59.637Z,1004.42
2016-10-12T00:57:21.353Z,1004.38
2016-10-12T00:57:43.064Z,1004.40
2016-10-12T00:58:04.779Z,1004.37
2016-10-12T00:58:26.495Z,1004.42
2016-10-12T00:58:48.208Z,1004.38
2016-10-12T00:59:09.917Z,1004.34
2016-10-12T00:59:31.628Z,1004.45
2016-10-12T00:59:53.343Z,1004.44
2016-10-12T01:00:15.057Z,1004.43
2016-10-12T01:00:36.770Z,1004.43
2016-10-12T01:00:58.492Z,1004.36
2016-10-12T01:01:20.212Z,1004.29
2016-10-12T01:01:41.923Z,1004.37
2016-10-12T01:02:03.651Z,1004.40
2016-10-12T01:02:25.362Z,1004.29
2016-10-12T01:02:47.075Z,1004.37
2016-10-12T01:03:08.788Z,1004.42
2016-10-12T01:03:30.499Z,1004.37
2016-10-12T01:03:52.213Z,1004.32
2016-10-12T01:04:13.927Z,1004.35
2016-10-12T01:04:35.644Z,1004.45
2016-10-12T01:04:57.356Z,1004.44
2016-10-12T01:05:19.073Z,1004.32
2016-10-12T01:05:40.796Z,1004.38
2016-10-12T01:06:02.507Z,1004.45
2016-10-12T01:06:24.218Z,1004.40
2016-10-12T01:06:45.930Z,1004.42
2016-10-12T01:07:07.646Z,1004.43
2016-10-12T01:07:29.368Z,1004.41
2016-10-12T01:07:51.084Z,1004.33
2016-10-12T01:08:12.810Z,1004.38
2016-10-12T01:08:39.296Z,1004.41
2016-10-12T01:09:05.784Z,1004.35
2016-10-12T01:09:53.976Z,1004.32
2016-10-12T01:10:15.686Z,1004.36
2016-10-12T01:10:37.405Z,1004.37
2016-10-12T01:10:59.122Z,1004.47
2016-10-12T01:11:20.833Z,1004.50
2016-10-12T01:11:42.556Z,1004.49
2016-10-12T01:12:04.353Z,1004.43
2016-10-12T01:12:26.067Z,1004.34
2016-10-12T01:12:47.779Z,1004.32
2016-10-12T01:13:09.493Z,1004.34
2016-10-12T01:13:57.690Z,1004.28
2016-10-12T01:14:19.400Z,1004.31
2016-10-12T01:14:41.112Z,1004.31
2016-10-12T01:15:02.821Z,1004.39
2016-10-12T01:15:24.538Z,1004.38
2016-10-12T01:15:46.262Z,1004.42
2016-10-12T01:16:07.977Z,1004.36
2016-10-12T01:16:29.692Z,1004.36
2016-10-12T01:16:51.407Z,1004.36
2016-10-12T01:17:13.127Z,1004.26
2016-10-12T01:17:34.842Z,1004.26
2016-10-12T01:17:56.543Z,1004.36
2016-10-12T01:18:18.258Z,1004.30
2016-10-12T01:18:39.978Z,1004.28
2016-10-12T01:19:01.695Z,1004.30
2016-10-12T01:19:23.414Z,1004.39
2016-10-12T01:19:45.129Z,1004.31
2016-10-12T01:20:06.843Z,1004.33
2016-10-12T01:20:28.559Z,1004.29
2016-10-12T01:20:50.274Z,1004.39
2016-10-12T01:21:11.986Z,1004.35
2016-10-12T01:21:33.697Z,1004.29
2016-10-12T01:21:55.408Z,1004.36
2016-10-12T01:22:58.644Z,1004.28
2016-10-12T01:23:27.827Z,1004.27
2016-10-12T01:23:49.559Z,1004.28
2016-10-12T01:24:11.269Z,1004.20
2016-10-12T01:24:32.983Z,1004.31
2016-10-12T01:24:54.701Z,1004.37
2016-10-12T01:25:17.415Z,1004.30
2016-10-12T01:25:39.132Z,1004.30
2016-10-12T01:26:00.844Z,1004.27
2016-10-12T01:26:22.560Z,1004.24
2016-10-12T01:26:44.274Z,1004.24
2016-10-12T01:27:08.542Z,1004.34
2016-10-12T01:27:30.264Z,1004.39
2016-10-12T01:27:51.974Z,1004.41
2016-10-12T01:28:13.687Z,1004.31
2016-10-12T01:28:35.398Z,1004.23
2016-10-12T01:28:57.128Z,1004.28
2016-10-12T01:29:18.844Z,1004.30
2016-10-12T01:29:40.559Z,1004.34
2016-10-12T01:30:02.276Z,1004.22
2016-10-12T01:30:23.993Z,1004.26
2016-10-12T01:30:45.702Z,1004.22
2016-10-12T01:31:07.412Z,1004.23
2016-10-12T01:31:55.706Z,1004.35
2016-10-12T01:32:17.420Z,1004.34
2016-10-12T01:32:39.137Z,1004.31
2016-10-12T01:33:00.847Z,1004.33
2016-10-12T01:33:22.554Z,1004.27
2016-10-12T01:33:44.266Z,1004.22
2016-10-12T01:34:05.994Z,1004.18
2016-10-12T01:34:27.705Z,1004.21
2016-10-12T01:34:49.426Z,1004.25
2016-10-12T01:35:11.146Z,1004.30
2016-10-12T01:35:32.853Z,1004.19
2016-10-12T01:35:54.564Z,1004.17
2016-10-12T01:36:16.288Z,1004.25
2016-10-12T01:36:38.001Z,1004.31
2016-10-12T01:36:59.711Z,1004.29
2016-10-12T01:37:21.424Z,1004.26
2016-10-12T01:37:43.137Z,1004.25
2016-10-12T01:38:04.854Z,1004.27
2016-10-12T01:38:26.564Z,1004.27
2016-10-12T01:38:48.276Z,1004.29
2016-10-12T01:39:09.997Z,1004.21
2016-10-12T01:39:31.713Z,1004.18
2016-10-12T01:39:53.428Z,1004.13
2016-10-12T01:40:15.138Z,1004.08
2016-10-12T01:40:36.848Z,1004.19
2016-10-12T01:40:58.560Z,1004.12
2016-10-12T01:41:20.276Z,1004.11
2016-10-12T01:41:41.988Z,1004.20
2016-10-12T01:42:04.699Z,1004.18
2016-10-12T01:42:26.424Z,1004.16
2016-10-12T01:42:48.140Z,1004.07
2016-10-12T01:43:09.851Z,1004.14
2016-10-12T01:43:31.559Z,1004.17
2016-10-12T01:43:53.268Z,1004.28
2016-10-12T01:44:14.984Z,1004.24
2016-10-12T01:44:36.696Z,1004.19
2016-10-12T01:44:58.404Z,1004.20
2016-10-12T01:45:24.887Z,1004.06
2016-10-12T01:45:46.605Z,1004.06
2016-10-12T01:46:08.319Z,1004.23
2016-10-12T01:46:30.028Z,1004.20
2016-10-12T01:46:51.739Z,1004.13
2016-10-12T01:47:13.456Z,1004.16
2016-10-12T01:47:37.952Z,1004.15
2016-10-12T01:47:59.676Z,1004.18
2016-10-12T01:48:21.389Z,1004.10
2016-10-12T01:48:43.101Z,1004.17
2016-10-12T01:49:04.819Z,1004.17
2016-10-12T01:49:26.531Z,1004.11
2016-10-12T01:49:48.244Z,1004.15
2016-10-12T01:50:09.960Z,1004.16
2016-10-12T01:50:31.670Z,1004.18
2016-10-12T01:50:53.384Z,1004.18
2016-10-12T01:51:15.099Z,1004.13
2016-10-12T01:51:36.910Z,1004.10
2016-10-12T01:51:58.619Z,1004.06
2016-10-12T01:52:20.333Z,1004.03
2016-10-12T01:52:42.045Z,1004.09
2016-10-12T01:53:03.764Z,1004.10
2016-10-12T01:53:25.460Z,1004.16
2016-10-12T01:53:47.266Z,1004.13
2016-10-12T01:54:08.983Z,1004.22
2016-10-12T01:54:30.695Z,1004.13
2016-10-12T01:54:52.414Z,1004.14
2016-10-12T01:55:14.128Z,1004.06
2016-10-12T01:55:35.836Z,1004.11
2016-10-12T01:55:57.546Z,1004.08
2016-10-12T01:56:19.261Z,1004.06
2016-10-12T01:56:40.973Z,1004.08
2016-10-12T01:57:02.681Z,1004.11
2016-10-12T01:57:24.400Z,1004.15
2016-10-12T01:57:46.124Z,1004.09
2016-10-12T01:58:12.609Z,1004.14
2016-10-12T01:58:34.322Z,1004.27
2016-10-12T01:58:56.038Z,1004.09
2016-10-12T01:59:17.766Z,1004.15
2016-10-12T01:59:39.483Z,1004.02
2016-10-12T02:00:01.202Z,1004.18
2016-10-12T02:00:22.921Z,1004.18
2016-10-12T02:00:44.643Z,1004.26
2016-10-12T02:01:06.360Z,1004.15
2016-10-12T02:01:28.076Z,1004.13
2016-10-12T02:01:49.805Z,1004.00
2016-10-12T02:02:11.518Z,1004.07
2016-10-12T02:02:33.227Z,1004.05
2016-10-12T02:02:54.948Z,1004.04
2016-10-12T02:03:16.658Z,1004.07
2016-10-12T02:03:38.377Z,1004.10
2016-10-12T02:04:00.083Z,1004.07
2016-10-12T02:04:21.813Z,1004.07
2016-10-12T02:04:43.522Z,1004.12
2016-10-12T02:05:05.234Z,1004.12
2016-10-12T02:06:07.750Z,1004.00
2016-10-12T02:06:29.467Z,1003.96
2016-10-12T02:06:52.179Z,1004.00
2016-10-12T02:07:13.898Z,1004.01
2016-10-12T02:07:35.613Z,1004.00
2016-10-12T02:07:57.326Z,1004.10
2016-10-12T02:08:19.036Z,1004.07
2016-10-12T02:08:40.749Z,1004.07
2016-10-12T02:09:02.459Z,1004.06
2016-10-12T02:09:24.164Z,1004.10
2016-10-12T02:09:45.878Z,1004.10
2016-10-12T02:10:07.588Z,1003.98
2016-10-12T02:10:29.305Z,1004.01
2016-10-12T02:10:51.012Z,1003.93
2016-10-12T02:11:12.728Z,1003.98
2016-10-12T02:11:34.447Z,1004.09
2016-10-12T02:11:56.161Z,1004.10
2016-10-12T02:12:17.875Z,1004.08
2016-10-12T02:12:39.587Z,1004.00
2016-10-12T02:13:01.296Z,1004.01
2016-10-12T02:13:23.013Z,1004.06
2016-10-12T02:13:44.747Z,1004.03
2016-10-12T02:14:06.451Z,1003.90
2016-10-12T02:14:28.161Z,1003.95
2016-10-12T02:14:49.869Z,1004.04
2016-10-12T02:15:11.586Z,1004.01
2016-10-12T02:15:33.314Z,1003.98
2016-10-12T02:15:55.028Z,1003.97
2016-10-12T02:16:16.749Z,1003.92
2016-10-12T02:16:38.465Z,1003.95
2016-10-12T02:17:00.191Z,1003.83
2016-10-12T02:17:21.903Z,1003.88
2016-10-12T02:17:43.608Z,1003.85
2016-10-12T02:18:05.329Z,1003.88
2016-10-12T02:18:27.038Z,1003.92
2016-10-12T02:18:48.744Z,1004.00
2016-10-12T02:19:10.458Z,1004.07
2016-10-12T02:19:32.172Z,1004.08
2016-10-12T02:19:53.893Z,1003.95
2016-10-12T02:20:15.600Z,1003.84
2016-10-12T02:20:37.359Z,1003.91
2016-10-12T02:20:59.073Z,1003.93
2016-10-12T02:21:20.786Z,1003.84
2016-10-12T02:21:42.501Z,1003.93
2016-10-12T02:22:04.214Z,1003.91
2016-10-12T02:22:25.920Z,1003.94
2016-10-12T02:22:47.635Z,1003.92
2016-10-12T02:23:09.356Z,1003.88
2016-10-12T02:23:31.069Z,1003.99
2016-10-12T02:23:52.792Z,1003.88
2016-10-12T02:24:14.509Z,1003.89
2016-10-12T02:24:36.218Z,1003.92
2016-10-12T02:24:57.929Z,1003.88
2016-10-12T02:25:19.641Z,1003.95
2016-10-12T02:25:41.360Z,1003.93
2016-10-12T02:26:03.076Z,1003.91
2016-10-12T02:26:24.790Z,1003.87
2016-10-12T02:26:46.505Z,1003.88
2016-10-12T02:27:08.217Z,1004.00
2016-10-12T02:27:29.929Z,1003.99
2016-10-12T02:27:56.418Z,1004.05
2016-10-12T02:28:18.135Z,1003.98
2016-10-12T02:28:39.843Z,1003.84
2016-10-12T02:29:01.556Z,1003.80
2016-10-12T02:29:23.272Z,1003.87
2016-10-12T02:29:44.988Z,1003.80
2016-10-12T02:30:06.709Z,1003.86
2016-10-12T02:30:28.511Z,1003.92
2016-10-12T02:30:50.226Z,1003.87
2016-10-12T02:31:11.938Z,1003.87
2016-10-12T02:31:33.653Z,1003.91
2016-10-12T02:31:56.359Z,1003.93
2016-10-12T02:32:18.080Z,1004.01
2016-10-12T02:32:39.800Z,1004.01
2016-10-12T02:33:01.527Z,1003.93
2016-10-12T02:33:23.237Z,1003.91
2016-10-12T02:33:44.949Z,1003.94
2016-10-12T02:34:06.659Z,1003.96
2016-10-12T02:34:28.384Z,1003.96
2016-10-12T02:34:50.101Z,1003.91
2016-10-12T02:35:11.816Z,1003.98
2016-10-12T02:35:33.535Z,1003.97
2016-10-12T02:35:55.251Z,1003.91
2016-10-12T02:36:16.969Z,1003.93
2016-10-12T02:36:38.688Z,1003.94
2016-10-12T02:37:00.395Z,1004.06
2016-10-12T02:37:22.107Z,1004.07
2016-10-12T02:37:43.841Z,1003.98
2016-10-12T02:38:05.550Z,1004.03
2016-10-12T02:38:27.266Z,1003.97
2016-10-12T02:38:48.974Z,1004.01
2016-10-12T02:39:10.682Z,1003.96
2016-10-12T02:39:32.392Z,1003.91
2016-10-12T02:39:54.114Z,1003.98
2016-10-12T02:40:15.822Z,1003.96
2016-10-12T02:40:37.531Z,1003.99
2016-10-12T02:40:59.245Z,1003.97
2016-10-12T02:41:20.953Z,1003.92
2016-10-12T02:41:42.666Z,1003.92
2016-10-12T02:42:04.382Z,1003.95
2016-10-12T02:42:26.091Z,1003.92
2016-10-12T02:42:47.803Z,1003.91
2016-10-12T02:43:09.520Z,1003.98
2016-10-12T02:43:31.233Z,1004.03
2016-10-12T02:43:52.946Z,1003.98
2016-10-12T02:44:14.656Z,1004.08
2016-10-12T02:44:36.369Z,1004.00
2016-10-12T02:44:58.087Z,1004.00
2016-10-12T02:45:19.816Z,1004.00
2016-10-12T02:45:41.521Z,1003.97
2016-10-12T02:46:03.232Z,1003.94
2016-10-12T02:46:24.946Z,1004.01
2016-10-12T02:46:46.660Z,1004.06
2016-10-12T02:47:08.369Z,1003.99
2016-10-12T02:47:30.085Z,1003.94
2016-10-12T02:47:51.800Z,1003.97
2016-10-12T02:48:13.513Z,1004.03
2016-10-12T02:48:35.228Z,1003.99
2016-10-12T02:48:56.936Z,1003.94
2016-10-12T02:49:18.653Z,1004.00
2016-10-12T02:49:40.367Z,1004.01
2016-10-12T02:50:02.092Z,1003.97
2016-10-12T02:50:23.810Z,1003.93
2016-10-12T02:50:45.532Z,1003.97
2016-10-12T02:51:07.255Z,1004.07
2016-10-12T02:51:28.965Z,1004.04
2016-10-12T02:51:50.677Z,1003.98
2016-10-12T02:52:12.395Z,1003.94
2016-10-12T02:52:34.108Z,1003.95
2016-10-12T02:52:55.825Z,1003.96
2016-10-12T02:53:17.537Z,1004.03
2016-10-12T02:53:39.249Z,1004.05
2016-10-12T02:54:00.964Z,1003.90
2016-10-12T02:54:53.759Z,1003.91
2016-10-12T02:55:15.476Z,1004.02
2016-10-12T02:55:37.188Z,1004.09
2016-10-12T02:55:58.904Z,1004.03
2016-10-12T02:56:20.614Z,1004.03
2016-10-12T02:56:42.331Z,1004.05
2016-10-12T02:57:04.043Z,1003.99
2016-10-12T02:57:25.754Z,1003.98
2016-10-12T02:57:47.480Z,1003.96
2016-10-12T02:58:09.187Z,1003.99
2016-10-12T02:58:30.904Z,1004.01
2016-10-12T02:58:52.611Z,1004.05
2016-10-12T02:59:14.339Z,1004.04
2016-10-12T02:59:36.046Z,1004.02
2016-10-12T02:59:57.759Z,1004.07
2016-10-12T03:00:19.473Z,1004.08
2016-10-12T03:00:41.192Z,1004.07
2016-10-12T03:01:05.726Z,1004.05
2016-10-12T03:01:27.438Z,1003.93
2016-10-12T03:01:49.160Z,1003.96
2016-10-12T03:02:10.879Z,1003.94
2016-10-12T03:02:32.603Z,1003.84
2016-10-12T03:02:54.318Z,1004.00
2016-10-12T03:03:16.039Z,1003.94
2016-10-12T03:03:37.749Z,1003.94
2016-10-12T03:03:59.461Z,1004.01
2016-10-12T03:04:21.182Z,1004.00
2016-10-12T03:04:42.902Z,1003.97
2016-10-12T03:05:04.616Z,1003.89
2016-10-12T03:05:26.327Z,1003.91
2016-10-12T03:05:48.050Z,1003.91
2016-10-12T03:06:09.759Z,1003.83
2016-10-12T03:06:31.470Z,1003.85
2016-10-12T03:06:53.183Z,1003.90
2016-10-12T03:07:14.896Z,1003.97
2016-10-12T03:07:36.613Z,1003.87
2016-10-12T03:07:58.329Z,1003.89
2016-10-12T03:08:20.045Z,1004.01
2016-10-12T03:08:41.755Z,1004.01
2016-10-12T03:09:03.467Z,1003.90
2016-10-12T03:09:25.188Z,1003.91
2016-10-12T03:09:46.895Z,1003.94
2016-10-12T03:10:08.619Z,1003.90
2016-10-12T03:11:01.604Z,1003.95
2016-10-12T03:11:23.315Z,1003.94
2016-10-12T03:11:45.028Z,1004.01
2016-10-12T03:12:06.737Z,1003.92
2016-10-12T03:12:28.446Z,1004.03
2016-10-12T03:12:50.159Z,1003.94
2016-10-12T03:13:11.881Z,1004.00
2016-10-12T03:13:33.605Z,1003.86
2016-10-12T03:13:55.307Z,1003.92
2016-10-12T03:14:17.019Z,1003.98
2016-10-12T03:14:38.737Z,1003.93
2016-10-12T03:15:00.452Z,1003.94
2016-10-12T03:15:22.164Z,1004.06
2016-10-12T03:15:43.885Z,1003.98
2016-10-12T03:16:05.595Z,1003.96
2016-10-12T03:16:27.302Z,1003.94
2016-10-12T03:16:49.014Z,1003.87
2016-10-12T03:17:10.727Z,1003.93
2016-10-12T03:17:32.445Z,1003.84
2016-10-12T03:17:54.162Z,1003.93
2016-10-12T03:18:15.869Z,1003.96
2016-10-12T03:18:37.583Z,1003.88
2016-10-12T03:18:59.313Z,1003.86
2016-10-12T03:19:21.023Z,1003.94
2016-10-12T03:19:42.735Z,1003.89
2016-10-12T03:20:09.227Z,1003.89
2016-10-12T03:20:30.940Z,1003.94
2016-10-12T03:20:52.654Z,1003.91
2016-10-12T03:21:14.367Z,1003.87
2016-10-12T03:21:36.083Z,1003.88
2016-10-12T03:21:57.802Z,1003.95
2016-10-12T03:22:19.523Z,1003.82
2016-10-12T03:22:41.230Z,1003.79
2016-10-12T03:23:02.940Z,1003.85
2016-10-12T03:23:24.657Z,1003.81
2016-10-12T03:23:46.372Z,1003.93
2016-10-12T03:24:08.086Z,1003.89
2016-10-12T03:24:29.803Z,1003.88
2016-10-12T03:24:51.514Z,1003.81
2016-10-12T03:25:13.231Z,1003.89
2016-10-12T03:25:34.950Z,1003.83
2016-10-12T03:25:56.658Z,1003.84
2016-10-12T03:26:18.366Z,1003.80
2016-10-12T03:26:40.082Z,1003.83
2016-10-12T03:27:01.798Z,1003.86
2016-10-12T03:27:23.511Z,1003.92
2016-10-12T03:27:45.222Z,1003.86
2016-10-12T03:28:06.935Z,1003.79
2016-10-12T03:28:28.672Z,1003.85
2016-10-12T03:28:50.384Z,1003.77
2016-10-12T03:29:12.095Z,1003.82
2016-10-12T03:29:33.812Z,1003.93
2016-10-12T03:29:55.517Z,1003.96
2016-10-12T03:30:17.238Z,1003.96
2016-10-12T03:30:38.955Z,1003.94
2016-10-12T03:31:00.676Z,1003.91
2016-10-12T03:31:22.401Z,1003.87
2016-10-12T03:31:44.110Z,1003.81
2016-10-12T03:32:05.830Z,1003.77
2016-10-12T03:32:27.547Z,1003.83
2016-10-12T03:32:49.271Z,1003.73
2016-10-12T03:33:10.990Z,1003.69
2016-10-12T03:33:32.701Z,1003.74
2016-10-12T03:33:54.420Z,1003.73
2016-10-12T03:34:16.137Z,1003.70
2016-10-12T03:34:37.856Z,1003.80
2016-10-12T03:34:59.564Z,1003.74
2016-10-12T03:35:21.272Z,1003.70
2016-10-12T03:35:42.988Z,1003.74
2016-10-12T03:36:04.720Z,1003.83
2016-10-12T03:36:26.437Z,1003.85
2016-10-12T03:36:48.146Z,1003.78
2016-10-12T03:37:09.861Z,1003.70
2016-10-12T03:37:31.573Z,1003.75
2016-10-12T03:37:53.288Z,1003.69
2016-10-12T03:38:15.002Z,1003.74
2016-10-12T03:38:36.717Z,1003.77
2016-10-12T03:38:58.425Z,1003.74
2016-10-12T03:39:20.142Z,1003.78
2016-10-12T03:39:41.872Z,1003.78
2016-10-12T03:40:03.593Z,1003.85
2016-10-12T03:40:25.308Z,1003.80
2016-10-12T03:40:47.017Z,1003.80
2016-10-12T03:41:08.744Z,1003.71
2016-10-12T03:41:30.450Z,1003.77
2016-10-12T03:41:52.172Z,1003.75
2016-10-12T03:42:13.887Z,1003.69
2016-10-12T03:42:35.612Z,1003.81
2016-10-12T03:42:57.323Z,1003.72
2016-10-12T03:43:23.822Z,1003.82
2016-10-12T03:43:45.530Z,1003.77
2016-10-12T03:44:07.244Z,1003.86
2016-10-12T03:44:28.952Z,1003.96
2016-10-12T03:44:55.445Z,1003.82
2016-10-12T03:45:17.157Z,1003.76
2016-10-12T03:45:38.869Z,1003.75
2016-10-12T03:46:00.580Z,1003.81
2016-10-12T03:46:22.301Z,1003.86
2016-10-12T03:46:44.020Z,1003.89
2016-10-12T03:47:05.736Z,1003.88
2016-10-12T03:47:27.455Z,1003.85
2016-10-12T03:47:49.168Z,1003.86
2016-10-12T03:48:10.880Z,1003.88
2016-10-12T03:48:32.597Z,1003.81
2016-10-12T03:48:54.315Z,1003.74
2016-10-12T03:49:16.035Z,1003.80
2016-10-12T03:49:37.748Z,1003.83
2016-10-12T03:49:59.472Z,1003.93
2016-10-12T03:50:21.184Z,1003.86
2016-10-12T03:50:42.899Z,1003.83
2016-10-12T03:51:04.626Z,1003.87
2016-10-12T03:51:26.340Z,1003.82
2016-10-12T03:51:48.055Z,1003.92
2016-10-12T03:52:09.765Z,1003.78
2016-10-12T03:52:31.486Z,1003.75
2016-10-12T03:52:53.204Z,1003.88
2016-10-12T03:53:14.916Z,1003.83
2016-10-12T03:53:36.631Z,1003.80
2016-10-12T03:53:58.410Z,1003.79
2016-10-12T03:54:20.130Z,1003.75
2016-10-12T03:54:41.849Z,1003.74
2016-10-12T03:55:03.559Z,1003.74
2016-10-12T03:55:25.271Z,1003.78
2016-10-12T03:55:46.990Z,1003.81
2016-10-12T03:56:08.698Z,1003.84
2016-10-12T03:56:30.407Z,1003.81
2016-10-12T03:56:52.124Z,1003.78
2016-10-12T03:57:13.836Z,1003.73
2016-10-12T03:57:35.562Z,1003.75
2016-10-12T03:57:57.358Z,1003.75
2016-10-12T03:58:19.071Z,1003.76
2016-10-12T03:58:40.790Z,1003.76
2016-10-12T03:59:02.504Z,1003.67
2016-10-12T03:59:24.219Z,1003.80
2016-10-12T03:59:45.941Z,1003.84
2016-10-12T04:00:07.649Z,1003.73
2016-10-12T04:00:29.363Z,1003.84
2016-10-12T04:00:51.078Z,1003.79
2016-10-12T04:01:12.789Z,1003.80
2016-10-12T04:01:34.501Z,1003.79
2016-10-12T04:01:56.211Z,1003.82
2016-10-12T04:02:17.926Z,1003.80
2016-10-12T04:02:39.641Z,1003.75
2016-10-12T04:03:01.353Z,1003.77
2016-10-12T04:03:23.063Z,1003.69
2016-10-12T04:03:44.782Z,1003.73
2016-10-12T04:04:06.497Z,1003.71
2016-10-12T04:04:28.209Z,1003.72
2016-10-12T04:04:49.925Z,1003.61
2016-10-12T04:05:11.641Z,1003.68
2016-10-12T04:05:33.353Z,1003.71
2016-10-12T04:05:55.079Z,1003.68
2016-10-12T04:06:16.783Z,1003.78
2016-10-12T04:06:38.503Z,1003.75
2016-10-12T04:07:00.205Z,1003.78
2016-10-12T04:07:21.923Z,1003.76
2016-10-12T04:07:43.642Z,1003.75
2016-10-12T04:08:05.362Z,1003.74
2016-10-12T04:08:27.094Z,1003.70
2016-10-12T04:08:48.804Z,1003.74
2016-10-12T04:09:10.525Z,1003.73
2016-10-12T04:09:32.249Z,1003.79
2016-10-12T04:09:53.967Z,1003.76
2016-10-12T04:10:59.289Z,1003.77
2016-10-12T04:11:25.592Z,1003.69
2016-10-12T04:11:47.316Z,1003.68
2016-10-12T04:12:09.031Z,1003.64
2016-10-12T04:12:30.751Z,1003.75
2016-10-12T04:12:52.461Z,1003.75
2016-10-12T04:13:14.170Z,1003.71
2016-10-12T04:13:35.901Z,1003.67
2016-10-12T04:13:57.640Z,1003.66
2016-10-12T04:14:19.369Z,1003.71
2016-10-12T04:14:41.082Z,1003.64
2016-10-12T04:15:02.796Z,1003.76
2016-10-12T04:15:24.517Z,1003.78
2016-10-12T04:15:46.227Z,1003.74
2016-10-12T04:16:08.942Z,1003.76
2016-10-12T04:16:30.715Z,1003.73
2016-10-12T04:16:53.430Z,1003.67
2016-10-12T04:17:15.149Z,1003.67
2016-10-12T04:17:36.890Z,1003.64
2016-10-12T04:17:58.612Z,1003.60
2016-10-12T04:18:20.334Z,1003.69
2016-10-12T04:18:42.049Z,1003.69
2016-10-12T04:19:03.765Z,1003.65
2016-10-12T04:19:25.481Z,1003.65
2016-10-12T04:19:47.205Z,1003.74
2016-10-12T04:20:08.919Z,1003.77
2016-10-12T04:20:30.639Z,1003.75
2016-10-12T04:20:52.350Z,1003.74
2016-10-12T04:21:14.067Z,1003.67
2016-10-12T04:21:35.788Z,1003.73
2016-10-12T04:21:57.513Z,1003.69
2016-10-12T04:22:19.222Z,1003.68
2016-10-12T04:22:40.931Z,1003.71
2016-10-12T04:23:02.656Z,1003.75
2016-10-12T04:23:24.375Z,1003.71
2016-10-12T04:23:46.091Z,1003.71
2016-10-12T04:24:07.805Z,1003.76
2016-10-12T04:24:29.518Z,1003.86
2016-10-12T04:24:51.238Z,1003.87
2016-10-12T04:25:12.968Z,1003.80
2016-10-12T04:25:35.683Z,1003.79
2016-10-12T04:25:57.403Z,1003.69
2016-10-12T04:26:19.121Z,1003.74
2016-10-12T04:26:40.839Z,1003.74
2016-10-12T04:27:02.572Z,1003.79
2016-10-12T04:27:24.294Z,1003.88
2016-10-12T04:27:46.080Z,1003.89
2016-10-12T04:28:07.803Z,1003.77
2016-10-12T04:28:29.524Z,1003.72
2016-10-12T04:28:51.240Z,1003.71
2016-10-12T04:29:12.955Z,1003.78
2016-10-12T04:29:34.672Z,1003.77
2016-10-12T04:29:56.392Z,1003.88
2016-10-12T04:30:18.110Z,1003.83